createdAt,value
2022-09-14T00:04:53.231Z,91.0
2022-09-14T00:18:53.310Z,90.0
2022-09-14T00:32:53.660Z,89.0
2022-09-14T00:46:53.703Z,90.0
2022-09-14T01:00:53.753Z,89.0
2022-09-14T01:14:53.723Z,90.0
2022-09-14T01:28:53.737Z,91.0
2022-09-14T01:42:53.739Z,90.0
2022-09-14T01:56:53.743Z,90.0
2022-09-14T02:10:53.742Z,91.0
2022-09-14T02:24:53.752Z,91.0
2022-09-14T02:38:53.770Z,91.0
2022-09-14T02:52:53.738Z,92.0
2022-09-14T03:06:53.754Z,92.0
2022-09-14T03:20:53.769Z,91.0
2022-09-14T03:34:53.731Z,92.0
2022-09-14T03:52:13.775Z,93.0
2022-09-14T04:06:13.877Z,94.0
2022-09-14T04:20:13.838Z,94.0
2022-09-14T04:34:13.946Z,94.0
2022-09-14T04:48:13.938Z,94.0
2022-09-14T05:03:14.012Z,93.0
2022-09-14T05:18:13.939Z,92.0
2022-09-14T05:33:14.028Z,92.0
2022-09-14T05:48:14.259Z,92.0
2022-09-14T06:03:14.157Z,91.0
2022-09-14T06:18:14.299Z,89.0
2022-09-14T06:33:14.213Z,86.0
2022-09-14T06:48:14.276Z,84.0
2022-09-14T07:03:14.307Z,83.0
2022-09-14T07:18:14.411Z,82.0
2022-09-14T07:33:14.501Z,75.0
2022-09-14T07:48:14.636Z,69.0
2022-09-14T08:03:14.701Z,66.0
2022-09-14T08:18:14.690Z,64.0
2022-09-14T08:33:14.886Z,66.0
2022-09-14T08:49:14.866Z,67.0
2022-09-14T09:04:15.015Z,71.0
2022-09-14T09:19:14.854Z,73.0
2022-09-14T09:34:14.905Z,72.0
2022-09-14T09:49:14.957Z,71.0
2022-09-14T10:04:14.903Z,68.0
2022-09-14T10:19:14.936Z,67.0
2022-09-14T10:34:17.280Z,67.0
2022-09-14T10:49:14.965Z,66.0
2022-09-14T11:04:14.959Z,68.0
2022-09-14T11:19:14.989Z,62.0
2022-09-14T11:34:15.015Z,60.0
2022-09-14T11:49:15.113Z,58.0
2022-09-14T12:04:15.172Z,59.0
2022-09-14T12:19:15.146Z,61.0
2022-09-14T12:34:15.143Z,64.0
2022-09-14T12:49:15.152Z,61.0
2022-09-14T13:04:15.171Z,58.0
2022-09-14T13:19:15.231Z,60.0
2022-09-14T13:34:15.270Z,66.0
2022-09-14T13:49:15.274Z,62.0
2022-09-14T14:04:18.513Z,58.0
2022-09-14T14:19:15.336Z,61.0
2022-09-14T14:34:15.564Z,61.0
2022-09-14T14:49:15.421Z,63.0
2022-09-14T15:04:15.538Z,66.0
2022-09-14T15:19:15.463Z,70.0
2022-09-14T15:34:15.465Z,72.0
2022-09-14T15:49:15.436Z,75.0
2022-09-14T16:05:15.589Z,78.0
2022-09-14T16:20:15.600Z,79.0
2022-09-14T16:35:15.611Z,83.0
2022-09-14T16:50:15.615Z,88.0
2022-09-14T17:05:15.645Z,90.0
2022-09-14T17:20:15.644Z,91.0
2022-09-14T17:35:15.822Z,93.0
2022-09-14T17:50:15.643Z,92.0
2022-09-14T18:05:15.631Z,93.0
2022-09-14T18:19:15.611Z,93.0
2022-09-14T18:33:15.610Z,93.0
2022-09-14T18:47:15.638Z,93.0
2022-09-14T19:01:15.684Z,92.0
2022-09-14T19:15:15.691Z,93.0
2022-09-14T19:29:15.663Z,93.0
2022-09-14T19:43:15.708Z,93.0
2022-09-14T19:57:15.725Z,93.0
2022-09-14T20:11:19.152Z,93.0
2022-09-14T20:25:15.674Z,93.0
2022-09-14T20:39:15.682Z,93.0
2022-09-14T20:53:15.690Z,94.0
2022-09-14T21:07:15.704Z,94.0
2022-09-14T21:21:15.728Z,94.0
2022-09-14T21:35:15.706Z,94.0
2022-09-14T21:49:15.725Z,95.0
2022-09-14T22:03:15.719Z,95.0
2022-09-14T22:17:15.763Z,95.0
2022-09-14T22:31:15.917Z,95.0
2022-09-14T22:45:15.835Z,96.0
2022-09-14T22:59:15.872Z,96.0
2022-09-14T23:13:16.299Z,96.0
2022-09-14T23:27:16.343Z,96.0
2022-09-14T23:41:16.301Z,96.0
2022-09-14T23:55:16.312Z,96.0
